• Join FlightAware (Why Join?)
  • Login
  • US Flag 
02:20AM EDT


 

Airport Tracker/Info


-or-


 

Live Flight TrackerFlight Track Log ✈ UPS1122 ✈ 22-Jun-2013 ✈ KSDF - KBDL

Flight Track Log - Related Links

Times and Time Zones

All times are in EDT time to prevent confusion due to time zone crossing. See the UPS1122 flight status page for this flight to view local times or setup timezone preferences in your user account.

Time Position Orientation Groundspeed Altitude Reporting Facility
EDT Latitude Longitude Course Direction KTS MPH feet Rate Location/Type
04:49AM 38.1750 -85.7420 329° Northwest 33 38  Level FlightAware
04:49AM 38.1760 -85.7430 322° Northwest 19 22 120 Level FlightAware
04:50AM 38.1790 -85.7430 360° North 20 23 120 Level FlightAware
04:52AM 38.1850 -85.7340 50° Northeast 30 35 120 Level FlightAware
04:53AM 38.1870 -85.7330 21° North 19 22 240 Level FlightAware
04:55AM 38.1218 -85.4639 102° East  Level FlightAware Approximate
04:56AM 38.0991 -85.3122 104° East  Level FlightAware Approximate
04:56AM 38.1650 -85.7230 104° East 160 184 1,000  Level FlightAware
04:56AM 38.1440 -85.7150 163° South 185 213 1,900 1,680 Climbing FlightAware
04:57AM 38.1180 -85.7050 163° South 217 250 2,600 1,860 Climbing FlightAware
04:57AM 38.0920 -85.6940 162° South 224 258 3,700 2,040 Climbing FlightAware
04:58AM 38.0760 -85.6830 152° Southeast 247 284 4,100 1,500 Climbing FlightAware
04:58AM 38.0680 -85.6670 122° Southeast 265 305 4,400 2,040 Climbing FlightAware
04:58AM 38.0650 -85.6450 100° East 273 314 5,000 1,200 Climbing FlightAware
04:59AM 38.0620 -85.5890 94° East 275 316 5,500 2,460 Climbing FlightAware
04:59AM 38.0530 -85.5370 102° East 285 328 7,900 3,840 Climbing FlightAware
05:00AM 38.0470 -85.4870 99° East 290 334 9,200 2,400 Climbing FlightAware
05:00AM 38.0430 -85.4100 94° East 311 358 10,700 1,680 Climbing FlightAware
05:01AM 38.0390 -85.3280 94° East 343 395 11,700 1,320 Climbing FlightAware
05:01AM 38.0420 -85.3010 82° East 351 404 12,000 1,500 Climbing FlightAware
05:02AM 38.0750 -85.2210 62° Northeast 370 426 13,100 1,620 Climbing FlightAware
05:03AM 38.1130 -85.1360 60° Northeast 384 442 14,400 1,680 Climbing FlightAware
05:03AM 38.1450 -85.0600 62° Northeast 390 449 15,400 1,500 Climbing FlightAware
05:04AM 38.1760 -84.9880 61° Northeast 398 458 16,400 1,500 Climbing FlightAware
05:05AM 38.2190 -84.8860 62° Northeast 408 470 17,500 660 Climbing FlightAware
05:06AM 38.2370 -84.8450 61° Northeast 411 473 18,000 1,380 Climbing FlightAware
05:07AM 38.3550 -84.5700 61° Northeast 428 493 20,900 1,920 Climbing FlightAware
05:08AM 38.3870 -84.4970 61° Northeast 428 493 20,900  Level FlightAware
05:09AM 38.4270 -84.4030 61° Northeast 428 493 20,900  Level FlightAware
05:09AM 38.4570 -84.3360 60° Northeast 428 493 20,900  Level FlightAware
05:10AM 38.4930 -84.2530 61° Northeast 428 493 20,900  Level FlightAware
05:11AM 38.5250 -84.1780 61° Northeast 428 493 20,900 3,000 Level FlightAware
05:12AM 38.6350 -83.9130 62° Northeast 457 526 26,800 2,940 Climbing FlightAware
05:13AM 38.6850 -83.7970 61° Northeast 459 528 27,300 1,200 Climbing FlightAware
05:14AM 38.7360 -83.6750 62° Northeast 466 536 28,800 1,500 Climbing FlightAware
05:14AM 38.7770 -83.5760 62° Northeast 469 540 29,500 1,200 Climbing FlightAware
05:15AM 38.8480 -83.4090 61° Northeast 468 539 31,000 840 Climbing FlightAware
05:16AM 38.8850 -83.3220 61° Northeast 465 535 31,000  Level FlightAware
05:17AM 38.9210 -83.2340 62° Northeast 468 539 31,000  Level FlightAware
05:17AM 38.9630 -83.1350 61° Northeast 467 537 31,000  Level FlightAware
05:18AM 39.0070 -83.0280 62° Northeast 468 539 31,000  Level FlightAware
05:19AM 39.0500 -82.9230 62° Northeast 468 539 31,000  Level FlightAware
05:19AM 39.0940 -82.8140 62° Northeast 469 540 31,000  Level FlightAware
05:20AM 39.1350 -82.7140 62° Northeast 471 542 31,000  Level FlightAware
05:21AM 39.1740 -82.6170 63° Northeast 472 543 31,000  Level FlightAware
05:22AM 39.2330 -82.4730 62° Northeast 472 543 31,000  Level FlightAware
05:22AM 39.2760 -82.3640 63° Northeast 472 543 31,000  Level FlightAware
05:23AM 39.3170 -82.2630 62° Northeast 471 542 31,000  Level FlightAware
05:24AM 39.3600 -82.1580 62° Northeast 471 542 31,000  Level FlightAware
05:25AM 39.4060 -82.0440 62° Northeast 472 543 31,000  Level FlightAware
05:25AM 39.4320 -81.9800 62° Northeast 473 544 31,000  Level FlightAware
05:26AM 39.5030 -81.8040 62° Northeast 474 545 31,000  Level FlightAware
05:27AM 39.5480 -81.6920 62° Northeast 473 544 31,000  Level FlightAware
05:28AM 39.5880 -81.5890 63° Northeast 474 545 31,000  Level FlightAware
05:28AM 39.6300 -81.4820 63° Northeast 474 545 31,000  Level FlightAware
05:29AM 39.6710 -81.3730 64° Northeast 475 547 31,000  Level FlightAware
05:30AM 39.7080 -81.2610 67° East 473 544 31,000  Level FlightAware
05:30AM 39.7430 -81.1480 68° East 472 543 31,000  Level FlightAware
05:31AM 39.7750 -81.0420 69° East 472 543 31,000  Level FlightAware
05:32AM 39.8110 -80.9250 68° East 474 545 31,000  Level FlightAware
05:32AM 39.8430 -80.8170 69° East 475 547 31,000  Level FlightAware
05:33AM 39.8770 -80.7060 68° East 476 548 31,000  Level FlightAware
05:34AM 39.9030 -80.6190 69° East 477 549 31,000  Level FlightAware
05:35AM 39.9440 -80.4820 69° East 478 550 31,000  Level FlightAware
05:36AM 39.9920 -80.3220 69° East 478 550 31,000  Level FlightAware
05:36AM 40.0270 -80.1970 70° East 482 555 31,000  Level FlightAware
05:37AM 40.0590 -80.0860 69° East 482 555 31,000  Level FlightAware
05:38AM 40.0940 -79.9690 69° East 482 555 31,000  Level FlightAware
05:38AM 40.1290 -79.8490 69° East 482 555 31,000  Level FlightAware
05:39AM 40.1620 -79.7350 69° East 483 556 31,000  Level FlightAware
05:40AM 40.1910 -79.6340 69° East 485 558 31,000  Level FlightAware
05:40AM 40.2260 -79.5130 69° East 486 559 31,000  Level FlightAware
05:41AM 40.2610 -79.3920 69° East 488 562 31,000  Level FlightAware
05:42AM 40.2940 -79.2750 70° East 488 562 31,000  Level FlightAware
05:43AM 40.3270 -79.1590 70° East 488 562 31,000  Level FlightAware
05:43AM 40.3620 -79.0370 69° East 489 563 31,000  Level FlightAware
05:44AM 40.3940 -78.9260 69° East 490 564 31,000  Level FlightAware
05:45AM 40.4290 -78.8000 70° East 491 565 31,000  Level FlightAware
05:45AM 40.4610 -78.6840 70° East 492 566 31,000  Level FlightAware
05:47AM 40.5160 -78.4870 70° East 496 571 31,000  Level FlightAware
05:47AM 40.5480 -78.3710 70° East 496 571 31,000  Level FlightAware
05:48AM 40.5760 -78.2680 70° East 494 568 31,000  Level FlightAware
05:49AM 40.6106 -78.1409 70° East 500 575 31,000  Level FlightAware ADS-B
05:49AM 40.6350 -78.0490 71° East 497 572 31,000  Level FlightAware
05:50AM 40.6673 -77.9317 70° East 501 577 31,000  Level FlightAware ADS-B
05:50AM 40.6920 -77.8403 70° East 503 579 31,000  Level FlightAware ADS-B
05:51AM 40.7080 -77.7800 71° East 501 577 31,000  Level FlightAware
05:51AM 40.7324 -77.6899 70° East 504 580 31,000  Level FlightAware ADS-B
05:52AM 40.7670 -77.5862 66° East 504 580 31,000  Level FlightAware ADS-B
05:52AM 40.7828 -77.5555 56° Northeast 505 581 31,000  Level FlightAware ADS-B
05:52AM 40.8015 -77.5261 50° Northeast 505 581 31,000  Level FlightAware ADS-B
05:53AM 40.8521 -77.4584 45° Northeast 505 581 31,000  Level FlightAware ADS-B
05:53AM 40.9163 -77.3735 45° Northeast 506 582 31,000  Level FlightAware ADS-B
05:54AM 40.9664 -77.3073 45° Northeast 506 582 31,000  Level FlightAware ADS-B
05:54AM 41.0160 -77.2415 45° Northeast 506 582 31,000  Level FlightAware ADS-B
05:55AM 41.0663 -77.1745 45° Northeast 506 582 31,000  Level FlightAware ADS-B
05:55AM 41.1181 -77.1052 45° Northeast 506 582 31,000  Level FlightAware ADS-B
05:56AM 41.1692 -77.0364 45° Northeast 506 582 31,000  Level FlightAware ADS-B
05:56AM 41.2194 -76.9682 46° Northeast 508 585 31,000  Level FlightAware ADS-B
05:57AM 41.2689 -76.9011 46° Northeast 509 586 31,000  Level FlightAware ADS-B
05:57AM 41.3191 -76.8328 46° Northeast 511 588 31,000  Level FlightAware ADS-B
05:58AM 41.3688 -76.7655 45° Northeast 511 588 31,000  Level FlightAware ADS-B
05:58AM 41.4195 -76.6965 46° Northeast 512 589 31,000  Level FlightAware ADS-B
05:59AM 41.4726 -76.6240 46° Northeast 513 590 31,000  Level FlightAware ADS-B
05:59AM 41.5253 -76.5517 46° Northeast 513 590 31,000  Level FlightAware ADS-B
06:00AM 41.5770 -76.4808 46° Northeast 513 590 31,000  Level FlightAware ADS-B
06:01AM 41.6271 -76.4118 46° Northeast 514 592 31,000  Level FlightAware ADS-B
06:01AM 41.6834 -76.3340 46° Northeast 514 592 31,000  Level FlightAware ADS-B
06:02AM 41.7338 -76.2643 46° Northeast 515 593 31,000  Level FlightAware ADS-B
06:02AM 41.7835 -76.1954 46° Northeast 516 594 31,000  Level FlightAware ADS-B
06:03AM 41.8350 -76.1240 46° Northeast 516 594 31,000  Level FlightAware ADS-B
06:03AM 41.8869 -76.0520 46° Northeast 517 595 31,000  Level FlightAware ADS-B
06:04AM 41.9379 -75.9814 46° Northeast 517 595 31,000  Level FlightAware ADS-B
06:05AM 42.0260 -75.8600 46° Northeast 516 594 31,000  Level FlightAware
06:05AM 42.0800 -75.7850 46° Northeast 516 594 31,000  Level FlightAware
06:06AM 42.1550 -75.6800 46° Northeast 517 595 31,000  Level FlightAware
06:07AM 42.2290 -75.5760 46° Northeast 516 594 31,000  Level FlightAware
06:07AM 42.2950 -75.4840 46° Northeast 515 593 31,000 -180 Level FlightAware
06:08AM 42.3680 -75.3810 46° Northeast 513 590 30,800 -600 Descending FlightAware
06:09AM 42.4400 -75.2700 49° Northeast 522 601 30,100 -1,200 Descending FlightAware
06:09AM 42.4690 -75.1460 72° East 536 617 29,100 -1,560 Descending FlightAware
06:10AM 42.4730 -75.0170 88° East 544 626 28,100 -1,620 Descending FlightAware
06:11AM 42.4750 -74.8880 89° East 539 620 26,400 -2,280 Descending FlightAware
06:13AM 42.4820 -74.5330 88° East 505 581 22,500 -1,920 Descending FlightAware
06:13AM 42.4840 -74.4330 88° East 505 581 22,500  Level FlightAware
06:15AM 42.4900 -74.2020 88° East 505 581 22,500  Level FlightAware
06:15AM 42.4930 -74.0940 88° East 505 581 22,500  Level FlightAware
06:16AM 42.4960 -73.9620 88° East 505 581 22,500 -3,060 Level FlightAware
06:17AM 42.3730 -73.7000 122° Southeast 448 516 16,700 -4,380 Descending FlightAware
06:18AM 42.3530 -73.5770 102° East 441 507 14,600 -1,620 Descending FlightAware
06:19AM 42.3370 -73.4790 102° East 440 506 14,400 -180 Descending FlightAware
06:19AM 42.3240 -73.3940 102° East 440 506 14,400 -2,160 Level FlightAware
06:20AM 42.3075 -73.2878 102° East 418 481 11,500 -2,040 Descending Boston Center
06:21AM 42.2772 -73.1472 106° East 371 427 10,900 -1,080 Descending Boston Center
06:22AM 42.2172 -73.0847 142° Southeast 317 365 9,400 -1,980 Descending Boston Center
06:23AM 42.1697 -72.9892 124° Southeast 293 337 7,000 -1,980 Descending Boston Center
06:24AM 42.1411 -72.9019 114° Southeast 279 321 5,500 -1,440 Descending Boston Center
06:25AM 42.1081 -72.8011 114° Southeast 274 315 4,200 -1,380 Descending Boston Center
06:26AM 42.0769 -72.7169 116° Southeast 274 315 2,800 -1,080 Descending Boston Center
06:27AM 42.0481 -72.6386 116° Southeast 258 297 2,100 -360 Descending Boston Center
06:28AM 42.0169 -72.5797 125° Southeast 196 226 2,100 -300 Level Boston Center
06:29AM 41.9958 -72.6133 230° Southwest 97 112 1,500 -600 Descending Boston Center
06:30AM 41.9750 -72.6439 227° Southwest 97 112 900 -600 Descending Boston Center
06:31AM 41.9458 -72.6744 218° Southwest 111 128 300 5,040 Descending Boston Center
06:32AM 41.9208 -72.7022 220° Southwest 111 128 11,000 10,680 Climbing Boston Center
06:34AM 41.9333 -72.6833 226° Southwest  Level FlightAware Approximate
06:41AM 41.9392 -72.6834 226° Southwest  Level Estimated
06:42AM 41.9333 -72.6833 226° Southwest  Level FlightAware Approximate
06:43AM 41.9392 -72.6834 226° Southwest  Level Estimated